METAR Data
IDs: Format: Raw Decoded Include TAF

Data at: 2006 UTC 18 Apr 2021

KBCT 181947Z 17011G22KT 8SM FEW050 31/22 A2989
KBCT 181847Z 17011G16KT 9SM SCT049 31/22 A2991
KBCT 181747Z 17015G20KT 9SM SCT047 30/22 A2992
KBCT 181647Z 17010G15KT 9SM SCT042 31/21 A2993
KBCT 181447Z 21006KT 9SM CLR 31/19 A2997
KBCT 181347Z 24003KT 9SM CLR 29/20 A2998
KBCT 181247Z 22005KT 9SM HZ CLR 27/21 A2997
KBCT 181147Z 21003KT 7SM HZ FEW040 23/22 A2997
KBCT 181047Z 25004KT 7SM SCT040 22/21 A2996
KBCT 180253Z 26008KT 10SM CLR 25/18 A2991
KBCT 180153Z 26010KT 10SM CLR 26/17 A2990
KBCT 180053Z 22012G22KT 190V280 10SM CLR 27/17 A2987
KBCT 172353Z 24015G23KT 190V280 10SM CLR 29/16 A2986
KBCT 172253Z 23015G22KT 190V280 10SM CLR 31/16 A2985
KBCT 172153Z 23016G22KT 190V280 10SM CLR 32/17 A2984
KBCT 172053Z 25015G25KT 190V280 10SM FEW055 34/17 A2984
KBCT 171953Z 24015G25KT 10SM FEW055 34/17 A2986
KBCT 171847Z 24014KT 10SM CLR 33/17 A2988
KBCT 171747Z 24010G20KT 10SM CLR 32/18 A2990
KBCT 171647Z 24008KT 10SM CLR 32/18 A2990
KBCT 171147Z 22004KT 7SM CLR 22/21 A2990
KBCT 171047Z 25004KT 8SM CLR 20/19 A2989